createdAt,value
2019-03-01T00:02:02.170Z,34.20
2019-03-01T00:04:12.676Z,30.83
2019-03-01T00:06:19.992Z,39.70
2019-03-01T00:09:19.019Z,31.50
2019-03-01T00:11:51.471Z,33.10
2019-03-01T00:14:27.110Z,38.90
2019-03-01T00:17:23.056Z,39.60
2019-03-01T00:19:54.156Z,35.97
2019-03-01T00:22:23.525Z,31.57
2019-03-01T00:25:02.691Z,35.10
2019-03-01T00:27:37.838Z,41.93
2019-03-01T00:30:34.698Z,39.53
2019-03-01T00:32:50.931Z,30.80
2019-03-01T00:35:08.216Z,35.60
2019-03-01T00:37:32.530Z,34.17
2019-03-01T00:40:02.849Z,41.30
2019-03-01T00:42:27.523Z,42.90
2019-03-01T00:44:41.809Z,33.70
2019-03-01T00:46:46.209Z,33.73
2019-03-01T00:48:50.093Z,36.43
2019-03-01T00:50:53.917Z,38.97
2019-03-01T00:52:57.790Z,29.63
2019-03-01T00:55:05.001Z,39.00
2019-03-01T00:57:09.096Z,39.50
2019-03-01T00:59:13.040Z,39.07
2019-03-01T01:01:17.381Z,42.73
2019-03-01T01:03:21.513Z,35.83
2019-03-01T01:05:25.398Z,39.00
2019-03-01T01:07:29.360Z,38.80
2019-03-01T01:09:33.278Z,42.97
2019-03-01T01:11:37.173Z,39.87
2019-03-01T01:13:41.042Z,36.10
2019-03-01T01:15:44.938Z,41.57
2019-03-01T01:17:49.156Z,39.23
2019-03-01T01:19:52.984Z,48.77
2019-03-01T01:21:56.831Z,35.27
2019-03-01T01:24:00.698Z,39.87
2019-03-01T01:26:04.715Z,37.90
2019-03-01T01:28:08.607Z,39.03
2019-03-01T01:30:13.094Z,38.83
2019-03-01T01:36:49.120Z,42.00
2019-03-01T01:43:39.198Z,43.20
2019-03-01T01:46:39.771Z,37.70
2019-03-01T01:48:59.287Z,44.63
2019-03-01T01:58:37.506Z,58.00
2019-03-01T02:01:13.493Z,48.27
2019-03-01T02:10:49.896Z,51.87
2019-03-01T02:17:30.793Z,52.50
2019-03-01T02:20:19.150Z,47.07
2019-03-01T02:23:33.952Z,45.60
2019-03-01T02:26:48.502Z,50.97
2019-03-01T02:30:29.644Z,56.13
2019-03-01T02:39:34.876Z,62.80
2019-03-01T02:42:03.046Z,48.50
2019-03-01T02:48:35.468Z,65.97
2019-03-01T02:54:20.903Z,53.20
2019-03-01T02:55:02.242Z,61.57
2019-03-01T02:57:06.788Z,70.70
2019-03-01T02:59:50.729Z,66.17
2019-03-01T03:02:24.782Z,67.77
2019-03-01T03:05:32.112Z,62.20
2019-03-01T03:08:18.220Z,74.57
2019-03-01T03:18:39.574Z,60.77
2019-03-01T03:37:54.769Z,66.30
2019-03-01T03:47:27.705Z,52.20
2019-03-01T03:50:52.246Z,57.07
2019-03-01T04:12:34.623Z,57.57
2019-03-01T04:44:48.718Z,75.50
2019-03-01T05:22:42.635Z,75.90
2019-03-01T05:28:34.733Z,82.47
2019-03-01T05:38:03.063Z,90.40
2019-03-01T05:41:09.754Z,71.20
2019-03-01T05:44:43.632Z,76.13
2019-03-01T05:53:40.204Z,81.30
2019-03-01T06:13:03.867Z,69.87
2019-03-01T06:16:19.593Z,73.83
2019-03-01T06:26:05.755Z,87.13
2019-03-01T06:41:38.496Z,72.53
2019-03-01T06:44:52.511Z,75.73
2019-03-01T06:47:41.731Z,72.57
2019-03-01T06:53:14.530Z,84.17
2019-03-01T06:59:51.018Z,73.97
2019-03-01T07:00:24.726Z,77.93
2019-03-01T07:03:06.442Z,76.50
2019-03-01T07:13:08.354Z,81.90
2019-03-01T07:16:29.645Z,69.37
2019-03-01T07:19:09.735Z,70.97
2019-03-01T07:24:51.142Z,64.13
2019-03-01T07:28:06.420Z,68.40
2019-03-01T07:33:52.529Z,76.30
2019-03-01T07:39:40.984Z,69.60
2019-03-01T07:43:16.810Z,61.50
2019-03-01T07:45:27.258Z,70.77
2019-03-01T07:50:52.462Z,83.57
2019-03-01T08:17:03.745Z,85.03
2019-03-01T08:22:33.846Z,80.90
2019-03-01T08:25:23.246Z,83.07
2019-03-01T08:38:40.122Z,81.30
2019-03-01T08:41:29.595Z,77.63
2019-03-01T09:11:15.964Z,80.40
2019-03-01T09:15:00.025Z,71.40
2019-03-01T09:23:32.315Z,66.80
2019-03-01T09:26:51.701Z,64.97
2019-03-01T09:37:06.076Z,65.67
2019-03-01T09:43:59.509Z,69.13
2019-03-01T09:46:52.949Z,63.83
2019-03-01T09:49:47.629Z,65.13
2019-03-01T09:53:04.943Z,65.93
2019-03-01T09:55:04.806Z,62.40
2019-03-01T09:57:08.692Z,63.30
2019-03-01T09:59:12.653Z,68.63
2019-03-01T10:01:17.894Z,64.80
2019-03-01T10:03:21.880Z,72.33
2019-03-01T10:05:25.676Z,69.93
2019-03-01T10:07:29.522Z,68.87
2019-03-01T10:09:33.416Z,79.07
2019-03-01T10:11:37.523Z,72.30
2019-03-01T10:13:41.475Z,73.67
2019-03-01T10:15:45.460Z,73.50
2019-03-01T10:17:49.259Z,86.60
2019-03-01T10:19:53.147Z,107.47
2019-03-01T10:21:57.051Z,117.00
2019-03-01T10:24:00.926Z,114.93
2019-03-01T10:26:04.984Z,131.33
2019-03-01T10:28:09.116Z,144.30
2019-03-01T10:30:17.848Z,141.53
2019-03-01T10:32:21.733Z,142.23
2019-03-01T10:34:25.870Z,149.43
2019-03-01T10:36:29.711Z,157.67
2019-03-01T10:38:33.682Z,160.97
2019-03-01T10:40:37.826Z,157.93
2019-03-01T10:42:41.682Z,182.43
2019-03-01T10:44:45.640Z,150.93
2019-03-01T10:46:49.663Z,128.83
2019-03-01T10:48:53.663Z,132.63
2019-03-01T10:50:57.562Z,114.23
2019-03-01T10:53:01.560Z,122.70
2019-03-01T10:55:06.390Z,128.27
2019-03-01T10:57:10.556Z,128.47
2019-03-01T10:59:14.447Z,128.23
2019-03-01T11:01:18.315Z,112.33
2019-03-01T11:03:21.647Z,103.07
2019-03-01T11:05:25.631Z,96.53
2019-03-01T11:07:29.612Z,112.67
2019-03-01T11:09:33.404Z,104.43
2019-03-01T11:11:37.222Z,114.60
2019-03-01T11:13:41.047Z,122.43
2019-03-01T11:15:44.971Z,116.57
2019-03-01T11:17:48.863Z,123.60
2019-03-01T11:19:53.049Z,123.87
2019-03-01T11:21:56.904Z,104.60
2019-03-01T11:24:00.808Z,93.90
2019-03-01T11:26:04.800Z,99.53
2019-03-01T11:28:10.443Z,98.83
2019-03-01T11:30:19.580Z,84.40
2019-03-01T11:32:23.569Z,79.83
2019-03-01T11:34:27.367Z,79.43
2019-03-01T11:36:31.167Z,67.30
2019-03-01T11:38:35.031Z,59.73
2019-03-01T11:40:39.010Z,81.00
2019-03-01T11:42:42.870Z,82.40
2019-03-01T11:44:46.703Z,88.10
2019-03-01T11:46:50.490Z,76.20
2019-03-01T11:48:54.363Z,79.87
2019-03-01T11:50:58.183Z,97.40
2019-03-01T11:53:02.551Z,81.33
2019-03-01T11:55:06.976Z,78.07
2019-03-01T11:57:10.946Z,63.00
2019-03-01T11:59:18.983Z,68.67
2019-03-01T12:01:22.844Z,68.53
2019-03-01T12:03:26.675Z,58.30
2019-03-01T12:05:30.349Z,61.13
2019-03-01T12:07:34.204Z,56.77
2019-03-01T12:09:38.071Z,51.37
2019-03-01T12:11:42.167Z,61.00
2019-03-01T12:13:45.970Z,61.63
2019-03-01T12:15:49.778Z,43.73
2019-03-01T12:17:53.710Z,58.57
2019-03-01T12:19:57.844Z,49.33
2019-03-01T12:22:02.029Z,45.00
2019-03-01T12:24:05.955Z,54.90
2019-03-01T12:26:09.776Z,57.73
2019-03-01T12:28:13.554Z,49.63
2019-03-01T12:30:19.255Z,62.57
2019-03-01T12:32:23.279Z,56.60
2019-03-01T12:34:27.208Z,58.67
2019-03-01T12:36:30.995Z,55.90
2019-03-01T12:38:34.875Z,72.90
2019-03-01T12:40:38.983Z,54.37
2019-03-01T12:42:42.848Z,52.00
2019-03-01T12:44:46.638Z,59.60
2019-03-01T12:46:50.440Z,51.60
2019-03-01T12:48:54.680Z,51.17
2019-03-01T12:50:58.471Z,50.33
2019-03-01T12:53:02.327Z,37.63
2019-03-01T12:55:07.083Z,53.63
2019-03-01T12:57:10.906Z,54.10
2019-03-01T12:59:14.768Z,52.77
2019-03-01T13:01:18.579Z,51.37
2019-03-01T13:03:22.369Z,54.40
2019-03-01T13:05:29.243Z,56.07
2019-03-01T13:07:31.796Z,47.20
2019-03-01T13:09:35.659Z,46.43
2019-03-01T13:11:39.490Z,47.87
2019-03-01T13:13:43.358Z,44.87
2019-03-01T13:15:49.651Z,36.57
2019-03-01T13:17:52.736Z,50.00
2019-03-01T13:19:57.635Z,54.73
2019-03-01T13:22:02.043Z,58.43
2019-03-01T13:24:05.950Z,45.13
2019-03-01T13:26:11.318Z,42.17
2019-03-01T13:28:15.127Z,39.13
2019-03-01T13:30:20.303Z,30.83
2019-03-01T13:32:24.108Z,39.87
2019-03-01T13:34:27.954Z,40.73
2019-03-01T13:36:31.734Z,45.07
2019-03-01T13:38:35.795Z,33.43
2019-03-01T13:40:39.676Z,38.87
2019-03-01T13:42:43.482Z,35.60
2019-03-01T13:44:47.306Z,40.97
2019-03-01T13:46:51.187Z,32.13
2019-03-01T13:48:55.027Z,34.07
2019-03-01T13:50:58.947Z,46.83
2019-03-01T13:53:02.746Z,33.40
2019-03-01T13:55:06.733Z,36.30
2019-03-01T13:57:11.488Z,35.50
2019-03-01T13:59:16.127Z,27.10
2019-03-01T14:01:19.943Z,34.10
2019-03-01T14:03:25.356Z,37.97
2019-03-01T14:05:29.490Z,37.50
2019-03-01T14:07:32.807Z,28.87
2019-03-01T14:09:36.877Z,41.80
2019-03-01T14:11:40.734Z,29.10
2019-03-01T14:13:47.826Z,28.80
2019-03-01T14:15:50.566Z,40.13
2019-03-01T14:17:57.606Z,44.27
2019-03-01T14:19:59.954Z,31.87
2019-03-01T14:22:04.849Z,54.10
2019-03-01T14:24:09.531Z,39.77
2019-03-01T14:26:15.055Z,34.17
2019-03-01T14:28:18.955Z,49.00
2019-03-01T14:30:25.296Z,33.30
2019-03-01T14:32:28.535Z,37.50
2019-03-01T14:34:32.318Z,34.03
2019-03-01T14:36:36.118Z,36.33
2019-03-01T14:38:40.027Z,31.33
2019-03-01T14:40:43.832Z,34.10
2019-03-01T14:42:47.807Z,28.70
2019-03-01T14:44:51.735Z,31.83
2019-03-01T14:46:56.211Z,21.57
2019-03-01T14:49:00.859Z,30.77
2019-03-01T14:51:07.069Z,28.83
2019-03-01T14:53:10.315Z,27.03
2019-03-01T14:55:19.789Z,27.73
2019-03-01T14:57:34.288Z,28.10
2019-03-01T15:00:21.843Z,23.70
2019-03-01T15:02:49.119Z,23.37
2019-03-01T15:04:54.359Z,21.57
2019-03-01T15:06:58.247Z,25.27
2019-03-01T15:09:02.115Z,24.73
2019-03-01T15:11:11.216Z,15.13
2019-03-01T15:13:15.139Z,18.07
2019-03-01T15:15:19.087Z,16.60
2019-03-01T15:17:22.976Z,14.73
2019-03-01T15:19:26.851Z,20.47
2019-03-01T15:21:33.962Z,15.80
2019-03-01T15:23:36.346Z,22.33
2019-03-01T15:25:40.155Z,24.30
2019-03-01T15:27:44.227Z,16.80
2019-03-01T15:29:48.074Z,25.33
2019-03-01T15:31:54.990Z,14.70
2019-03-01T15:33:57.982Z,11.80
2019-03-01T15:36:01.886Z,18.50
2019-03-01T15:38:05.836Z,12.13
2019-03-01T15:40:09.774Z,9.07
2019-03-01T15:42:14.289Z,10.47
2019-03-01T15:44:19.079Z,19.30
2019-03-01T15:46:23.030Z,13.40
2019-03-01T15:48:26.805Z,19.33
2019-03-01T15:50:30.607Z,12.63
2019-03-01T15:52:34.398Z,14.97
2019-03-01T15:54:38.547Z,14.90
2019-03-01T15:56:42.923Z,13.70
2019-03-01T15:58:47.604Z,8.27
2019-03-01T16:00:54.561Z,17.33
2019-03-01T16:02:58.411Z,23.37
2019-03-01T16:05:02.369Z,15.73
2019-03-01T16:07:06.619Z,10.17
2019-03-01T16:09:15.641Z,8.57
2019-03-01T16:11:19.523Z,12.53
2019-03-01T16:13:23.396Z,8.97
2019-03-01T16:15:27.267Z,19.23
2019-03-01T16:17:31.139Z,8.57
2019-03-01T16:19:34.931Z,11.50
2019-03-01T16:21:39.763Z,24.33
2019-03-01T16:23:43.691Z,15.50
2019-03-01T16:25:47.471Z,14.23
2019-03-01T16:27:54.328Z,13.67
2019-03-01T16:29:56.886Z,15.10
2019-03-01T16:32:00.731Z,23.83
2019-03-01T16:34:05.341Z,14.57
2019-03-01T16:36:15.828Z,20.33
2019-03-01T16:38:19.699Z,26.07
2019-03-01T16:40:23.482Z,8.53
2019-03-01T16:42:27.464Z,21.83
2019-03-01T16:44:31.411Z,31.03
2019-03-01T16:46:35.311Z,33.27
2019-03-01T16:48:39.804Z,18.13
2019-03-01T16:50:44.800Z,22.43
2019-03-01T16:53:04.268Z,21.70
2019-03-01T16:55:05.692Z,19.33
2019-03-01T16:57:11.826Z,9.83
2019-03-01T16:59:15.235Z,14.67
2019-03-01T17:01:19.055Z,11.50
2019-03-01T17:03:22.846Z,22.27
2019-03-01T17:05:26.630Z,17.97
2019-03-01T17:07:30.759Z,12.10
2019-03-01T17:09:34.792Z,23.53
2019-03-01T17:11:41.536Z,26.53
2019-03-01T17:13:44.167Z,15.73
2019-03-01T17:15:48.527Z,8.80
2019-03-01T17:17:53.095Z,16.50
2019-03-01T17:19:58.743Z,20.13
2019-03-01T17:22:02.566Z,23.87
2019-03-01T17:24:06.439Z,12.50
2019-03-01T17:26:10.242Z,14.47
2019-03-01T17:28:16.822Z,10.60
2019-03-01T17:30:20.854Z,19.97
2019-03-01T17:32:24.634Z,17.40
2019-03-01T17:34:29.454Z,11.80
2019-03-01T17:36:33.403Z,7.83
2019-03-01T17:38:43.503Z,16.77
2019-03-01T17:40:42.855Z,44.70
2019-03-01T17:42:46.666Z,129.50
2019-03-01T17:44:50.775Z,27.33
2019-03-01T17:46:54.567Z,22.60
2019-03-01T17:48:58.759Z,12.77
2019-03-01T17:51:02.624Z,13.37
2019-03-01T17:53:09.539Z,20.07
2019-03-01T17:55:12.319Z,17.77
2019-03-01T17:57:16.203Z,21.00
2019-03-01T17:59:19.987Z,12.93
2019-03-01T18:01:24.362Z,9.53
2019-03-01T18:03:28.167Z,11.50
2019-03-01T18:05:31.974Z,5.80
2019-03-01T18:07:35.851Z,10.40
2019-03-01T18:09:39.972Z,13.40
2019-03-01T18:11:44.552Z,17.07
2019-03-01T18:13:49.234Z,12.33
2019-03-01T18:15:53.024Z,16.07
2019-03-01T18:17:56.899Z,17.37
2019-03-01T18:20:01.565Z,10.57
2019-03-01T18:22:06.590Z,10.60
2019-03-01T18:24:11.063Z,14.80
2019-03-01T18:26:16.046Z,6.13
2019-03-01T18:28:20.079Z,14.40
2019-03-01T18:30:25.439Z,7.00
2019-03-01T18:32:29.373Z,14.60
2019-03-01T18:34:35.589Z,11.23
2019-03-01T18:36:38.742Z,7.43
2019-03-01T18:38:42.555Z,18.80
2019-03-01T18:40:48.487Z,18.57
2019-03-01T18:42:52.052Z,59.40
2019-03-01T18:44:55.831Z,18.93
2019-03-01T18:46:59.638Z,8.07
2019-03-01T18:49:03.990Z,7.50
2019-03-01T18:51:08.158Z,11.73
2019-03-01T18:53:12.111Z,5.00
2019-03-01T18:55:17.449Z,10.37
2019-03-01T18:57:21.850Z,12.40
2019-03-01T18:59:25.752Z,6.57
2019-03-01T19:01:29.695Z,11.60
2019-03-01T19:03:36.529Z,7.70
2019-03-01T19:05:40.118Z,12.37
2019-03-01T19:07:44.722Z,12.20
2019-03-01T19:09:48.700Z,13.83
2019-03-01T19:11:54.192Z,10.67
2019-03-01T19:13:58.508Z,18.13
2019-03-01T19:16:03.568Z,17.93
2019-03-01T19:18:07.460Z,14.60
2019-03-01T19:20:13.667Z,13.13
2019-03-01T19:22:17.451Z,18.67
2019-03-01T19:24:21.558Z,15.03
2019-03-01T19:26:25.460Z,13.57
2019-03-01T19:28:29.337Z,25.90
2019-03-01T19:30:33.317Z,10.57
2019-03-01T19:32:39.043Z,10.47
2019-03-01T19:34:46.182Z,11.20
2019-03-01T19:36:53.571Z,11.50
2019-03-01T19:39:00.460Z,17.73
2019-03-01T19:41:04.910Z,13.10
2019-03-01T19:43:10.215Z,8.10
2019-03-01T19:45:15.771Z,15.77
2019-03-01T19:47:26.470Z,8.57
2019-03-01T19:49:30.243Z,13.23
2019-03-01T19:51:37.412Z,8.30
2019-03-01T19:53:39.607Z,10.27
2019-03-01T19:55:43.957Z,14.33
2019-03-01T19:57:49.419Z,20.07
2019-03-01T19:59:53.308Z,19.63
2019-03-01T20:01:57.170Z,8.20
2019-03-01T20:04:00.951Z,19.80
2019-03-01T20:06:08.081Z,7.53
2019-03-01T20:08:10.498Z,11.77
2019-03-01T20:10:16.007Z,6.17
2019-03-01T20:12:19.943Z,8.27
2019-03-01T20:14:23.811Z,11.20
2019-03-01T20:16:28.063Z,10.77
2019-03-01T20:18:32.214Z,19.40
2019-03-01T20:20:38.234Z,17.60
2019-03-01T20:22:42.108Z,13.20
2019-03-01T20:24:45.952Z,11.87
2019-03-01T20:26:50.165Z,11.30
2019-03-01T20:28:54.215Z,15.33
2019-03-01T20:30:58.099Z,12.20
2019-03-01T20:33:02.059Z,12.70
2019-03-01T20:35:09.590Z,13.07
2019-03-01T20:37:11.876Z,10.00
2019-03-01T20:39:17.807Z,14.90
2019-03-01T20:41:21.630Z,4.67
2019-03-01T20:43:25.767Z,4.03
2019-03-01T20:45:30.233Z,12.40
2019-03-01T20:47:35.227Z,12.53
2019-03-01T20:49:39.386Z,8.40
2019-03-01T20:51:44.511Z,9.40
2019-03-01T20:53:49.589Z,8.10
2019-03-01T20:55:53.962Z,7.50
2019-03-01T20:58:03.121Z,15.33
2019-03-01T21:00:07.734Z,13.30
2019-03-01T21:02:13.130Z,15.97
2019-03-01T21:04:17.413Z,23.57
2019-03-01T21:06:21.350Z,10.73
2019-03-01T21:08:28.763Z,15.83
2019-03-01T21:10:31.191Z,6.07
2019-03-01T21:12:36.692Z,8.93
2019-03-01T21:14:40.547Z,12.70
2019-03-01T21:16:44.849Z,9.57
2019-03-01T21:18:49.516Z,7.50
2019-03-01T21:20:53.742Z,3.93
2019-03-01T21:22:58.422Z,11.00
2019-03-01T21:25:03.264Z,21.63
2019-03-01T21:27:07.882Z,8.33
2019-03-01T21:29:14.433Z,9.83
2019-03-01T21:31:18.258Z,6.50
2019-03-01T21:33:24.155Z,14.50
2019-03-01T21:35:27.723Z,6.50
2019-03-01T21:37:34.718Z,5.80
2019-03-01T21:39:37.167Z,9.70
2019-03-01T21:41:41.464Z,14.73
2019-03-01T21:43:46.891Z,19.63
2019-03-01T21:45:50.734Z,4.57
2019-03-01T21:47:54.607Z,8.30
2019-03-01T21:49:59.935Z,6.50
2019-03-01T21:52:04.015Z,12.20
2019-03-01T21:54:07.790Z,6.50
2019-03-01T21:57:02.375Z,8.30
2019-03-01T22:08:51.024Z,5.37
2019-03-01T22:11:59.177Z,13.93
2019-03-01T22:14:37.227Z,19.20
2019-03-01T22:17:48.763Z,9.13
2019-03-01T22:20:32.705Z,11.87
2019-03-01T22:26:28.759Z,13.97
2019-03-01T22:29:47.283Z,9.60
2019-03-01T22:32:27.128Z,7.37
2019-03-01T22:35:40.322Z,4.30
2019-03-01T22:38:24.522Z,10.40
2019-03-01T22:41:41.962Z,8.43
2019-03-01T22:47:28.309Z,5.07
2019-03-01T22:50:26.573Z,11.93
2019-03-01T22:53:19.924Z,10.53
2019-03-01T22:55:57.755Z,6.47
2019-03-01T22:58:47.170Z,4.60
2019-03-01T23:01:47.036Z,15.07
2019-03-01T23:08:18.716Z,7.30
2019-03-01T23:13:25.400Z,8.77
2019-03-01T23:16:19.700Z,11.70
2019-03-01T23:19:19.053Z,9.33
2019-03-01T23:24:55.085Z,10.53
2019-03-01T23:27:57.157Z,31.13
2019-03-01T23:31:00.483Z,5.10
2019-03-01T23:40:35.771Z,4.90
2019-03-01T23:43:27.645Z,16.27
2019-03-01T23:45:55.183Z,9.37
2019-03-01T23:48:35.718Z,10.20
2019-03-01T23:54:50.318Z,9.83
2019-03-01T23:57:43.576Z,16.17
